x

Virginia Beach 64 Nm East Of Virginia Beach, Va (44014) Wave Buoy

4:50pm - Sun 26th Jun 2016 All times are EDT. -4 hours from GMT.

  • Sig Wave height 4.3ft
  • Swell Direction
  • Peak Period 8s
  • Average Period 5s
  • Wind
    13mph, 18mph gusts
  • Sea Temp 71°f
  • Air Temp 71°f
  • Sea Pressure 1021.6mb
  • Virginia Beach 64 Nm East Of Virginia Beach, Va
  • Virginia Beach 64 Nm East Of Virginia Beach, Va

More Historic Weather Station data

Upgrade to MSW Pro to gain access to the past 30 days of data for over 8000 Wavebouys and Weather Stations around the globe.

Join Pro

Comparision Forecast

View Surf forecast
   
Sun 06/26 4:50pm 4.5ft 8s 5s 13 18 mph 1021.6mb 71f 71f
3:50pm 4.5ft 8s 5s 16 18 mph 1021.8mb 71f 71f
2:50pm 3.5ft 9s 5s 18 20 mph 1021.9mb 71f 71f
1:50pm 3.5ft 8s 5s 16 18 mph 1021.6mb 71f 70f
12:50pm 3.5ft 8s 5s 13 16 mph 1021.8mb 71f 70f
11:50am 4ft 8s 5s 13 16 mph 1022mb 70f 70f
10:50am 4ft 8s 5s 11 13 mph 1021.9mb 70f 70f
9:50am 4ft 8s 5s 13 18 mph 1022.1mb 70f 70f
8:50am 3.5ft 8s 5s 13 18 mph 1022.2mb 71f 70f
7:50am 3.5ft 9s 5s 16 18 mph 1022.3mb 71f 70f
6:50am 3.5ft 8s 5s 16 20 mph 1021.8mb 70f 70f
5:50am 3.5ft 7s 5s 18 20 mph 1021.5mb 70f 69f
4:50am 3.5ft 9s 5s 16 18 mph 1021mb 70f 69f
3:50am 3.5ft 8s 5s 16 18 mph 1020.5mb 70f 69f
2:50am 4ft 8s 5s 13 16 mph 1020.5mb 71f 69f
1:50am 3.5ft 6s 5s 18 20 mph 1020.3mb 71f 69f
12:50am 4ft 6s 5s 16 18 mph 1020.7mb 71f 70f
Sat 06/25 11:50pm 4.5ft 6s 5s 16 20 mph 1021.1mb 71f 70f
10:50pm 4.5ft 5s 5s 16 18 mph 1021.5mb 71f 70f
9:50pm 4.5ft 6s 5s 16 20 mph 1020.9mb 71f 70f
8:50pm 4.5ft 6s 4s 18 22 mph 1020.5mb 71f 70f
5:50pm 3.5ft 5s 4s 18 20 mph 1019.5mb 71f 70f
4:50pm 4ft 4s 4s 20 22 mph 1019.9mb 71f 71f
3:50pm 3.5ft 5s 4s 18 20 mph 1019.7mb 71f 71f
2:50pm 3ft 4s 4s 18 20 mph 1019.3mb 71f 71f
1:50pm 2.5ft 4s 4s 16 20 mph 1019mb 71f 71f
12:50pm 3ft 8s 4s 13 16 mph 1018.9mb 71f 71f
11:50am 3ft 8s 4s 18 20 mph 1018.8mb 71f 70f
10:50am 3ft 8s 4s 13 16 mph 1018.7mb 71f 71f
9:50am 3ft 8s 4s 13 16 mph 1018.6mb 71f 71f
8:50am 3ft 8s 4s 11 13 mph 1018.7mb 71f 70f
7:50am 3.5ft 6s 4s 13 16 mph 1018.1mb 71f 69f
6:50am 3ft 6s 5s 13 18 mph 1017.1mb 71f 70f
5:50am 3ft 7s 5s 9 11 mph 1016.1mb 71f 71f
4:50am 2.5ft 7s 6s 11 13 mph 1015.6mb 71f 71f
3:50am 3ft 7s 6s 7
mph
1015.6mb 71f 71f
2:50am 3ft 6s 6s 9 11 mph 1015.6mb 71f 71f
1:50am 3ft 6s 6s 4
mph
1015.8mb 71f 72f
12:50am 2.5ft 6s 6s 7 9 mph 1015.5mb 71f 72f
Fri 06/24 11:50pm 2.5ft 6s 5s 4 7 mph 1015.5mb 72f 72f
10:50pm 2.5ft 6s 5s 4 7 mph 1015.5mb 72f 72f
9:50pm 2.5ft 6s 5s 2
mph
1015.2mb 72f 72f
8:50pm 2.5ft 6s 5s 7
mph
1015.1mb 72f 72f
7:50pm 2.5ft 6s 5s 4
mph
1015.2mb 72f 73f
6:50pm 2.5ft 6s 5s 2 4 mph 1014.9mb 72f 74f
5:50pm 2.5ft 6s 5s 4
mph
1014.5mb 72f 74f
4:50pm 3ft 6s 5s 7 9 mph 1014.7mb 71f 73f
3:50pm 3.5ft 6s 5s 11 13 mph 1015mb 72f 73f
2:50pm 3.5ft 6s 5s 9
mph
1015mb 72f 73f
1:50pm 3.5ft 6s 5s 9
mph
1015mb 72f 73f
12:50pm 4ft 6s 5s 7 9 mph 1015.6mb 72f 72f
11:50am 4ft 7s 5s 7 9 mph 1015.9mb 71f 72f
10:50am 3.5ft 6s 5s 7
mph
1016mb 71f 72f
9:50am 3.5ft 7s 5s 9
mph
1015.7mb 70f 72f
8:50am 3.5ft 7s 5s 7 9 mph 1015.5mb 70f 72f
7:50am 3.5ft 7s 5s 7 9 mph 1015.2mb 70f 72f
6:50am 4ft 8s 5s 7
mph
1014.8mb 70f 72f
5:50am 4.5ft 6s 5s 9
mph
1013.9mb 70f 73f
4:50am 4.5ft 7s 5s 7 11 mph 1012.3mb 70f 72f
3:50am 4ft 6s 5s 13 18 mph 1012.3mb 70f 73f
2:50am 4.5ft 7s 5s 13 16 mph 1012.6mb 70f 73f
1:50am 4.5ft 7s 5s 22 25 mph 1012.5mb 69f 74f
12:50am 4.5ft 7s 5s 16 18 mph 1012.9mb 69f 74f
Thu 06/23 11:50pm 4.5ft 7s 5s 7 9 mph 1013.1mb 69f 73f
10:50pm 4.5ft 7s 5s 7 9 mph 1011.8mb 69f 74f
9:50pm 4.5ft 7s 5s 9 11 mph 1011.6mb 70f 73f
8:50pm 4.5ft 6s 5s 11 13 mph 1011.2mb 70f 72f
7:50pm 4ft 7s 5s 11
mph
1011.3mb 70f 72f
6:50pm 4ft 7s 5s 11
mph
1011.5mb 70f 73f
5:50pm 4ft 5s 5s 11
mph
1012mb 70f 73f
4:50pm 4ft 6s 5s 13 16 mph 1011.2mb 70f 73f
3:50pm 4.5ft 6s 5s 13 16 mph 1012.5mb 70f 73f
2:50pm 4.5ft 6s 5s 11 13 mph 1012.3mb 69f 72f
1:50pm 4.5ft 5s 4s 13 16 mph 1011.6mb 69f 72f
12:50pm 4ft 7s 4s 22 27 mph 1012.6mb 69f 73f
11:50am 3.5ft 6s 4s 18 20 mph 1013.7mb 69f 72f
10:50am 3ft 7s 4s 16 22 mph 1013.7mb 69f 73f
9:50am 2.5ft 7s 4s 13 18 mph 1013.2mb 69f 72f
8:50am 3ft 7s 4s 16 20 mph 1013.6mb 69f 73f
7:50am 3ft 7s 5s 18 22 mph 1013.7mb 69f 73f
6:50am 3ft 7s 5s 13 16 mph 1014.2mb 69f 72f
5:50am 3.5ft 7s 5s 13 16 mph 1014.9mb 69f 72f
4:50am 3.5ft 7s 5s 7
mph
1014.6mb 69f 71f
3:50am 3ft 7s 5s 7 13 mph 1014.9mb 69f 71f
2:50am 3ft 7s 5s 18 22 mph 1015.2mb 69f 73f
1:50am 3ft 7s 5s 13 16 mph 1015.7mb 69f 72f
12:50am 3ft 7s 5s 4 7 mph 1015.7mb 69f 71f
Wed 06/22 11:50pm 3ft 7s 5s 7
mph
1016.1mb 69f 72f
10:50pm 3.5ft 7s 5s 7 9 mph 1015.9mb 69f 72f